Tuesday, May 31, 2016, 11:57 AM EDT

KIPT, Williamsport-lycoming County

Location: Montoursville, PA, United States Lat: 41.25
Local Time: 11:57 AM EDT (15:57 GMT) Lon: -76.917
Time Zone: US/Eastern Elev: 528 ft

Show me the last for .
Show Decoded

2016-05-31 10:54 METAR KIPT 311454Z 28004KT 10SM CLR 24/14 A2999 RMK AO2 SLP154 T02390139 58007 =
2016-05-31 09:54 METAR KIPT 311354Z 26004KT 10SM CLR 21/16 A3001 RMK AO2 SLP158 T02060156 =
2016-05-31 09:36 METAR KIPT 311336Z 26005KT 10SM SCT006 20/16 A3001 RMK AO2 T02000156 =
2016-05-31 09:19 METAR KIPT 311319Z VRB05KT 10SM BKN006 19/16 A3002 RMK AO2 T01940156 =
2016-05-31 08:54 METAR KIPT 311254Z 26007KT 3SM HZ OVC005 18/16 A3002 RMK AO2 SLP164 T01830156 =
2016-05-31 08:38 METAR KIPT 311238Z 27006KT 3SM BR OVC005 18/16 A3002 =
2016-05-31 07:54 METAR KIPT 311154Z 31004KT 7SM OVC004 17/16 A3002 RMK AO2 SLP162 T01720156 10178
                 20167 51015 =
2016-05-31 07:07 METAR KIPT 311107Z 31004KT 4SM BR OVC003 17/16 A3001 RMK AO2 T01720156 =
2016-05-31 06:54 METAR KIPT 311054Z 27003KT 2SM BR OVC003 17/16 A3000 RMK AO2 SLP157 T01720161 =
2016-05-31 06:35 METAR KIPT 311035Z 25006KT 2SM BR OVC002 17/16 A2999 RMK AO2 T01670156 =
2016-05-31 06:23 METAR KIPT 311023Z 25004KT 1/2SM FG OVC003 17/16 A2999 RMK AO2 T01670156 =
2016-05-31 06:13 METAR KIPT 311013Z AUTO 26006KT 1 3/4SM BR OVC003 17/16 A2999 RMK AO2 T01670156
                 =
2016-05-31 05:54 METAR KIPT 310954Z AUTO 31005KT 3SM BR OVC003 17/16 A2999 RMK AO2 SLP152
                 T01720161 =
2016-05-31 04:54 METAR KIPT 310854Z AUTO 34003KT 10SM OVC004 17/16 A2997 RMK AO2 SLP146 T01720156
                 52003 =
2016-05-31 03:54 METAR KIPT 310754Z AUTO 00000KT 10SM OVC004 18/16 A2997 RMK AO2 SLP145 T01780156
                 =
2016-05-31 03:45 METAR KIPT 310745Z AUTO 00000KT 10SM OVC004 17/15 A2997 RMK AO2 T01720150 =
2016-05-31 03:35 METAR KIPT 310735Z AUTO 00000KT 10SM BKN006 17/15 A2996 RMK AO2 T01670150 =
2016-05-31 03:26 METAR KIPT 310726Z AUTO 00000KT 10SM SCT006 SCT085 17/15 A2996 RMK AO2 T01670150
                 =
2016-05-31 02:54 METAR KIPT 310654Z AUTO 35003KT 10SM SCT080 17/15 A2996 RMK AO2 SLP143 T01720150
                 =
2016-05-31 01:54 METAR KIPT 310554Z AUTO 00000KT 10SM SCT075 18/16 A2996 RMK AO2 SLP142 T01780161
                 10228 20172 58003 =
2016-05-31 00:54 METAR KIPT 310454Z AUTO 35003KT 10SM CLR 18/16 A2997 RMK AO2 SLP144 T01830161
                 403000178 =
2016-05-30 23:54 METAR KIPT 310354Z AUTO 00000KT 10SM CLR 19/17 A2996 RMK AO2 SLP143 T01940167 =
2016-05-30 22:54 METAR KIPT 310254Z AUTO 11003KT 10SM CLR 19/17 A2997 RMK AO2 SLP145 T01940167
                 51012 =
2016-05-30 21:54 METAR KIPT 310154Z 11003KT 10SM BKN075 BKN090 21/17 A2997 RMK AO2 SLP144
                 T02060172 =
2016-05-30 20:54 METAR KIPT 310054Z 11005KT 10SM BKN080 21/17 A2995 RMK AO2 SLP138 T02110172 =
2016-05-30 19:54 METAR KIPT 302354Z VRB04KT 10SM CLR 23/16 A2993 RMK AO2 SLP133 60000 T02280161
                 10300 20228 53010 =
2016-05-30 18:54 METAR KIPT 302254Z 09006KT 10SM CLR 24/16 A2992 RMK AO2 SLP127 T02390156 =
2016-05-30 17:54 METAR KIPT 302154Z 12006KT 10SM CLR 24/15 A2991 RMK AO2 SLP126 T02390150 =
2016-05-30 16:54 METAR KIPT 302054Z 00000KT 10SM FEW110 26/17 A2990 RMK AO2 LTG DSNT E AND SE
                 RAE09 TSE1958 SLP123 P0000 60000 T02560167 55003 =
2016-05-30 16:29 METAR KIPT 302029Z 00000KT 10SM SCT120 25/16 A2990 RMK AO2 LTG DSNT E AND SE
                 RAE09 TSE1958 P0000 T02500161 =
2016-05-30 16:04 METAR KIPT 302004Z 24009KT 10SM VCTS -RA SCT090 BKN110 24/17 A2990 RMK AO2 LTG
                 DSNT ALQDS TSE1958 P0000 T02390172 =
2016-05-30 15:54 METAR KIPT 301954Z 20008KT 10SM -TSRA FEW050 BKN090 OVC110 24/18 A2990 RMK AO2
                 WSHFT 1927 LTG DSNT NE AND S AND SW RAB41 TSB41 SLP122 P0000 T02440178 =
2016-05-30 15:47 METAR KIPT 301947Z 24006KT 10SM -TSRA SCT050 SCT080 OVC110 25/17 A2991 RMK AO2
                 WSHFT 1927 LTG DSNT NE AND S RAB41 TSB41 P0000 T02500167 =
2016-05-30 15:20 METAR KIPT 301920Z 16008KT 10SM VCTS FEW050 FEW060 SCT095 28/17 A2989 RMK AO2
                 LTG DSNT N AND NE T02830172 =
2016-05-30 14:54 METAR KIPT 301854Z 20008KT 10SM FEW055 FEW100 30/17 A2990 RMK AO2 LTG DSNT SW-N
                 SLP122 T03000172 =
2016-05-30 13:54 METAR KIPT 301754Z VRB05KT 10SM FEW050 29/17 A2991 RMK AO2 SLP125 T02940167
                 10300 20200 58020 =
2016-05-30 12:54 METAR KIPT 301654Z VRB03KT 10SM CLR 28/16 A2994 RMK AO2 SLP133 T02830156 =

Support USWX by starting your Amazon purchase here.